Time;durP1;ratioP1;P1;durP2;ratioP2;P2;SDS_P1;SDS_P2;PMS_P1;PMS_P2;Temp;Humidity;BMP_temperature;BMP_pressure;BME280_temperature;BME280_humidity;BME280_pressure;Samples;Min_cycle;Max_cycle;Signal;HPM_P1;HPM_P2
2021/04/25 00:00:43;;;;;;;17.90;7.57;;;16.30;55.50;;;;;;5035451;28;20033;-73
2021/04/25 00:03:09;;;;;;;15.77;7.55;;;16.30;55.40;;;;;;5035861;28;20207;-72
2021/04/25 00:05:34;;;;;;;12.52;7.22;;;16.20;55.10;;;;;;5035800;28;20097;-73
2021/04/25 00:08:01;;;;;;;14.05;7.35;;;16.00;55.00;;;;;;5037434;28;20026;-74
2021/04/25 00:10:26;;;;;;;11.82;7.15;;;15.90;55.10;;;;;;5037397;28;20445;-68
2021/04/25 00:12:52;;;;;;;14.63;7.97;;;16.00;55.20;;;;;;5055460;28;20025;-68
2021/04/25 00:15:23;;;;;;;15.13;7.97;;;16.00;55.00;;;;;;5055215;28;20023;-68
2021/04/25 00:17:49;;;;;;;14.73;8.35;;;16.00;55.00;;;;;;5054963;28;20087;-67
2021/04/25 00:20:16;;;;;;;18.85;9.50;;;16.00;54.60;;;;;;5037369;28;20116;-72
2021/04/25 00:22:43;;;;;;;14.77;9.30;;;16.00;54.00;;;;;;5035173;28;20034;-66
2021/04/25 00:25:11;;;;;;;15.63;9.45;;;16.00;53.60;;;;;;5035212;28;20391;-66
2021/04/25 00:27:36;;;;;;;14.73;9.07;;;16.00;53.70;;;;;;5034964;28;20036;-68
2021/04/25 00:30:05;;;;;;;13.57;8.93;;;16.10;53.50;;;;;;5047874;28;20378;-72
2021/04/25 00:32:31;;;;;;;19.13;8.65;;;16.00;53.60;;;;;;5054952;28;20017;-68
2021/04/25 00:34:57;;;;;;;16.17;9.30;;;16.00;53.70;;;;;;5055001;28;20374;-69
2021/04/25 00:37:22;;;;;;;16.00;8.57;;;16.10;53.50;;;;;;5054500;28;20119;-69
2021/04/25 00:39:48;;;;;;;14.70;8.20;;;16.10;53.50;;;;;;5054662;28;20036;-67
2021/04/25 00:42:16;;;;;;;15.13;8.68;;;16.10;53.40;;;;;;5054501;28;20029;-74
2021/04/25 00:44:45;;;;;;;14.35;8.63;;;16.10;53.30;;;;;;5054788;28;20364;-70
2021/04/25 00:47:12;;;;;;;13.73;8.25;;;16.10;53.10;;;;;;5054583;28;20032;-65
2021/04/25 00:49:38;;;;;;;15.40;7.22;;;16.00;52.90;;;;;;5050512;28;20419;-65
2021/04/25 00:52:05;;;;;;;11.88;7.78;;;16.00;53.00;;;;;;5034737;28;20104;-67
2021/04/25 00:54:31;;;;;;;15.02;7.57;;;16.00;53.00;;;;;;5034784;28;20475;-67
2021/04/25 00:56:58;;;;;;;13.32;7.25;;;16.00;53.20;;;;;;5034458;28;20088;-71
2021/04/25 00:59:26;;;;;;;16.20;8.25;;;16.00;53.20;;;;;;5034421;28;20021;-70
2021/04/25 01:01:52;;;;;;;13.35;7.70;;;15.90;53.00;;;;;;5054031;28;20346;-68
2021/04/25 01:04:17;;;;;;;16.77;7.80;;;15.90;53.30;;;;;;5038272;28;20030;-69
2021/04/25 01:06:43;;;;;;;15.45;7.88;;;15.90;53.10;;;;;;5034497;28;20163;-72
2021/04/25 01:09:09;;;;;;;12.63;8.23;;;15.90;53.00;;;;;;5035447;28;20032;-69
2021/04/25 01:11:35;;;;;;;14.23;8.10;;;15.90;53.00;;;;;;5053869;28;20490;-65
2021/04/25 01:14:00;;;;;;;18.80;10.07;;;15.80;53.00;;;;;;5036749;28;20041;-65
2021/04/25 01:16:28;;;;;;;15.73;8.90;;;15.80;53.30;;;;;;5053624;28;20065;-65
2021/04/25 01:18:54;;;;;;;19.90;11.45;;;15.70;53.50;;;;;;5052497;28;20047;-67
2021/04/25 01:21:20;;;;;;;19.42;10.43;;;15.70;53.40;;;;;;5037690;28;20104;-66
2021/04/25 01:23:46;;;;;;;17.30;11.52;;;15.60;53.40;;;;;;5034270;28;20100;-66
2021/04/25 01:26:12;;;;;;;18.73;11.93;;;15.60;53.40;;;;;;5033824;28;20168;-66
2021/04/25 01:28:38;;;;;;;21.30;12.18;;;15.50;53.20;;;;;;5034082;28;20028;-70
2021/04/25 01:31:04;;;;;;;17.58;12.30;;;15.40;52.90;;;;;;5026965;28;20036;-70
2021/04/25 01:33:33;;;;;;;20.90;11.50;;;15.30;53.00;;;;;;5053838;28;20043;-71
2021/04/25 01:35:59;;;;;;;21.45;12.48;;;15.30;53.10;;;;;;5053698;28;20402;-71
2021/04/25 01:38:26;;;;;;;15.55;11.27;;;15.30;53.20;;;;;;5046232;28;20041;-64
2021/04/25 01:40:52;;;;;;;23.00;11.48;;;15.20;53.40;;;;;;5022738;28;20039;-70
2021/04/25 01:43:18;;;;;;;19.60;11.65;;;15.10;53.30;;;;;;5053699;28;20040;-67
2021/04/25 01:45:45;;;;;;;15.52;11.20;;;15.00;53.30;;;;;;5053582;28;20029;-67
2021/04/25 01:48:11;;;;;;;19.02;11.93;;;15.00;53.50;;;;;;5053862;28;20021;-68
2021/04/25 01:50:37;;;;;;;22.73;11.05;;;15.00;53.40;;;;;;5053363;28;20390;-70
2021/04/25 01:53:04;;;;;;;17.85;12.82;;;15.00;54.20;;;;;;5053622;28;20060;-70
2021/04/25 01:55:33;;;;;;;18.52;12.18;;;15.00;53.60;;;;;;5053690;28;20078;-66
2021/04/25 01:57:59;;;;;;;16.38;11.43;;;14.80;53.30;;;;;;5053400;28;20032;-69
2021/04/25 02:00:33;;;;;;;17.75;11.30;;;14.80;53.40;;;;;;5053319;28;20025;-67
2021/04/25 02:02:59;;;;;;;19.70;11.02;;;14.80;53.60;;;;;;5052898;28;20083;-76
2021/04/25 02:05:25;;;;;;;19.50;10.57;;;14.90;53.40;;;;;;5053300;28;20459;-66
2021/04/25 02:07:52;;;;;;;16.10;10.30;;;14.90;53.10;;;;;;5052869;28;20039;-68
2021/04/25 02:10:19;;;;;;;17.30;10.93;;;14.90;52.90;;;;;;5053286;28;20035;-66
2021/04/25 02:12:45;;;;;;;16.52;10.35;;;14.90;52.80;;;;;;5052898;28;20037;-70
2021/04/25 02:15:12;;;;;;;15.27;9.85;;;15.00;52.90;;;;;;5053636;28;20021;-66
2021/04/25 02:17:40;;;;;;;14.02;9.63;;;15.10;52.90;;;;;;5053581;28;20547;-69
2021/04/25 02:20:06;;;;;;;16.35;10.00;;;15.00;52.90;;;;;;5053063;28;20030;-69
2021/04/25 02:22:32;;;;;;;15.38;9.43;;;15.00;54.00;;;;;;5043641;28;20040;-70
2021/04/25 02:24:58;;;;;;;18.55;9.63;;;14.90;53.70;;;;;;5033182;28;20022;-69
2021/04/25 02:27:23;;;;;;;12.98;8.40;;;14.90;53.90;;;;;;5033344;28;20032;-70
2021/04/25 02:29:49;;;;;;;12.25;8.50;;;14.90;53.90;;;;;;5033427;28;20142;-66
2021/04/25 02:32:15;;;;;;;14.10;9.02;;;14.90;54.10;;;;;;5036772;28;20478;-66
2021/04/25 02:34:41;;;;;;;15.25;8.95;;;14.90;54.20;;;;;;5053078;28;20025;-67
2021/04/25 02:37:07;;;;;;;16.90;8.63;;;14.80;54.20;;;;;;5052834;28;20060;-69
2021/04/25 02:39:32;;;;;;;13.95;8.43;;;14.90;54.30;;;;;;5055589;28;20061;-70
2021/04/25 02:41:58;;;;;;;13.80;7.55;;;14.60;54.50;;;;;;5056998;28;20372;-74
2021/04/25 02:44:24;;;;;;;13.48;7.75;;;14.60;54.60;;;;;;5056689;28;20111;-68
2021/04/25 02:46:50;;;;;;;12.57;7.82;;;14.60;54.90;;;;;;5056804;28;20032;-69
2021/04/25 02:49:16;;;;;;;11.65;7.75;;;14.60;55.30;;;;;;5057073;28;20040;-66
2021/04/25 02:51:43;;;;;;;12.82;8.07;;;14.60;55.10;;;;;;5038493;28;20086;-65
2021/04/25 02:54:09;;;;;;;15.45;7.60;;;14.60;55.20;;;;;;5056354;28;20534;-69
2021/04/25 02:56:35;;;;;;;16.05;8.48;;;14.50;55.00;;;;;;5056610;28;20048;-66
2021/04/25 02:59:00;;;;;;;12.38;7.90;;;14.50;55.10;;;;;;5056806;28;20105;-72
2021/04/25 03:01:26;;;;;;;12.93;7.47;;;14.60;55.20;;;;;;5056386;28;20049;-65
2021/04/25 03:03:52;;;;;;;12.27;8.05;;;14.50;55.80;;;;;;5056252;28;20083;-65
2021/04/25 03:06:17;;;;;;;11.45;7.47;;;14.50;55.10;;;;;;5056544;28;20021;-71
2021/04/25 03:08:43;;;;;;;12.63;7.78;;;14.50;55.30;;;;;;5056659;28;20383;-70
2021/04/25 03:11:09;;;;;;;10.23;6.57;;;14.50;55.20;;;;;;5038760;28;20398;-69
2021/04/25 03:13:34;;;;;;;12.88;6.75;;;14.50;55.10;;;;;;5056213;28;20025;-70
2021/04/25 03:16:00;;;;;;;11.77;7.70;;;14.40;55.10;;;;;;5056397;28;20033;-67
2021/04/25 03:18:26;;;;;;;10.25;6.85;;;14.40;55.30;;;;;;5056152;28;20057;-65
2021/04/25 03:20:51;;;;;;;11.13;7.45;;;14.40;54.90;;;;;;5056548;28;20021;-67
2021/04/25 03:23:17;;;;;;;9.23;6.93;;;14.30;55.40;;;;;;5056232;28;20029;-65
2021/04/25 03:25:43;;;;;;;13.35;7.20;;;14.30;54.90;;;;;;5055941;28;20025;-70
2021/04/25 03:28:09;;;;;;;11.07;7.55;;;14.40;54.70;;;;;;5055670;28;20044;-68
2021/04/25 03:30:34;;;;;;;11.15;7.22;;;14.30;54.50;;;;;;5056022;28;20025;-67
2021/04/25 03:33:00;;;;;;;10.95;6.70;;;14.30;54.40;;;;;;5056198;28;20083;-74
2021/04/25 03:35:26;;;;;;;14.43;6.65;;;14.20;54.20;;;;;;5055744;28;20028;-70
2021/04/25 03:37:52;;;;;;;14.60;6.95;;;14.30;54.10;;;;;;5055789;28;20385;-65
2021/04/25 03:40:19;;;;;;;11.02;7.05;;;14.30;54.20;;;;;;5055710;28;20425;-71
2021/04/25 03:42:46;;;;;;;13.63;6.68;;;14.20;53.80;;;;;;5055992;28;20087;-72
2021/04/25 03:45:13;;;;;;;13.32;6.68;;;14.10;53.80;;;;;;5046776;28;20091;-67
2021/04/25 03:47:44;;;;;;;10.15;6.95;;;14.20;54.00;;;;;;5035884;28;20087;-65
2021/04/25 03:50:11;;;;;;;10.23;6.60;;;14.20;53.80;;;;;;5035551;28;20113;-68
2021/04/25 03:52:37;;;;;;;13.40;6.85;;;14.20;53.80;;;;;;5035806;28;20025;-70
2021/04/25 03:55:04;;;;;;;11.98;7.28;;;14.10;54.00;;;;;;5040245;28;20071;-67
2021/04/25 03:57:32;;;;;;;10.02;6.85;;;14.10;54.30;;;;;;5055641;28;20048;-69
2021/04/25 04:00:00;;;;;;;11.95;6.97;;;14.20;54.80;;;;;;5055752;28;20025;-69
2021/04/25 04:02:25;;;;;;;11.23;6.95;;;14.20;54.10;;;;;;5056112;28;20036;-68
2021/04/25 04:04:51;;;;;;;9.70;6.90;;;14.10;53.90;;;;;;5055434;28;20021;-69
2021/04/25 04:07:17;;;;;;;13.52;6.85;;;14.00;54.20;;;;;;5055629;28;20501;-73
2021/04/25 04:09:42;;;;;;;10.95;6.43;;;14.00;54.10;;;;;;5055648;28;20100;-64
2021/04/25 04:12:08;;;;;;;8.52;6.20;;;14.00;54.20;;;;;;5055629;28;20110;-72
2021/04/25 04:14:34;;;;;;;9.82;6.57;;;14.10;54.20;;;;;;5055313;28;20025;-65
2021/04/25 04:17:00;;;;;;;10.52;6.43;;;14.10;53.90;;;;;;5054741;28;20040;-72
2021/04/25 04:19:26;;;;;;;12.40;6.32;;;14.20;54.10;;;;;;5055558;28;20041;-68
2021/04/25 04:21:51;;;;;;;12.88;6.43;;;14.20;54.50;;;;;;5055295;28;20477;-69
2021/04/25 04:24:17;;;;;;;10.13;5.70;;;14.20;53.80;;;;;;5055112;28;20029;-66
2021/04/25 04:26:43;;;;;;;9.95;6.65;;;14.20;53.70;;;;;;5052917;28;20043;-64
2021/04/25 04:29:10;;;;;;;10.93;5.97;;;14.20;53.70;;;;;;5035080;28;20024;-68
2021/04/25 04:31:36;;;;;;;11.98;6.55;;;14.10;53.60;;;;;;5046407;28;20063;-68
2021/04/25 04:34:02;;;;;;;8.52;5.78;;;14.10;53.60;;;;;;5055118;28;20017;-66
2021/04/25 04:36:27;;;;;;;10.65;6.15;;;14.20;53.70;;;;;;5055108;28;20040;-69
2021/04/25 04:38:53;;;;;;;11.77;6.22;;;14.20;53.60;;;;;;5039055;28;20032;-69
2021/04/25 04:41:19;;;;;;;13.30;6.75;;;14.20;53.50;;;;;;5054945;28;20029;-69
2021/04/25 04:43:44;;;;;;;10.50;6.63;;;14.20;53.50;;;;;;5055414;28;20021;-66
2021/04/25 04:46:10;;;;;;;13.02;6.50;;;14.10;53.40;;;;;;5056824;28;20124;-65
2021/04/25 04:48:36;;;;;;;13.00;6.57;;;14.00;54.00;;;;;;5054864;28;20079;-68
2021/04/25 04:51:01;;;;;;;10.13;6.38;;;14.00;53.80;;;;;;5054817;28;20029;-72
2021/04/25 04:53:27;;;;;;;13.90;7.13;;;14.10;53.70;;;;;;5054896;28;20100;-65
2021/04/25 04:55:53;;;;;;;10.88;6.55;;;14.00;53.80;;;;;;5054594;28;20031;-68
2021/04/25 04:58:18;;;;;;;9.25;6.18;;;14.00;53.60;;;;;;5054253;28;20083;-66
2021/04/25 05:00:44;;;;;;;13.02;6.05;;;14.00;53.90;;;;;;5053692;28;20383;-67
2021/04/25 05:03:10;;;;;;;9.82;5.95;;;14.00;53.70;;;;;;5054283;28;20490;-67
2021/04/25 05:05:36;;;;;;;11.20;6.50;;;13.90;53.90;;;;;;5054557;28;20025;-75
2021/04/25 05:08:02;;;;;;;9.55;5.90;;;13.90;54.00;;;;;;5055141;28;20052;-69
2021/04/25 05:10:28;;;;;;;13.68;6.85;;;13.90;53.70;;;;;;5057871;28;20028;-71
2021/04/25 05:12:54;;;;;;;12.40;6.28;;;13.90;53.80;;;;;;5056314;28;20098;-74
2021/04/25 05:15:19;;;;;;;10.32;5.80;;;14.00;54.00;;;;;;5038346;28;20474;-72
2021/04/25 05:17:45;;;;;;;11.52;5.80;;;13.90;53.80;;;;;;5054406;28;20485;-71
2021/04/25 05:20:11;;;;;;;11.38;5.85;;;14.00;53.70;;;;;;5054048;28;20032;-69
2021/04/25 05:22:37;;;;;;;14.65;6.38;;;14.20;53.80;;;;;;5054287;28;20031;-72
2021/04/25 05:25:03;;;;;;;9.02;5.50;;;14.20;53.40;;;;;;5054897;28;20104;-70
2021/04/25 05:27:29;;;;;;;9.10;5.88;;;14.30;53.30;;;;;;5053874;28;20025;-73
2021/04/25 05:29:55;;;;;;;9.38;6.20;;;14.30;53.20;;;;;;5053830;28;20390;-68
2021/04/25 05:32:20;;;;;;;13.02;6.20;;;14.30;53.20;;;;;;5053871;28;20478;-69
2021/04/25 05:34:46;;;;;;;11.80;6.15;;;14.20;53.10;;;;;;5054708;28;20021;-73
2021/04/25 05:37:12;;;;;;;11.05;6.72;;;14.40;53.10;;;;;;5054361;28;20353;-65
2021/04/25 05:39:37;;;;;;;11.43;6.65;;;14.50;53.00;;;;;;5053759;28;20035;-72
2021/04/25 05:42:03;;;;;;;9.32;6.38;;;14.60;52.90;;;;;;5053720;28;20075;-71
2021/04/25 05:44:30;;;;;;;13.23;6.90;;;14.80;52.80;;;;;;5053428;28;20497;-66
2021/04/25 05:46:57;;;;;;;11.18;6.68;;;15.00;52.30;;;;;;5053818;28;20428;-69
2021/04/25 05:49:23;;;;;;;9.27;5.75;;;15.10;52.00;;;;;;5035826;28;20051;-67
2021/04/25 05:51:51;;;;;;;11.40;6.47;;;15.10;52.00;;;;;;5035782;28;20025;-67
2021/04/25 05:54:17;;;;;;;8.70;6.32;;;15.30;51.80;;;;;;5035522;28;20036;-65
2021/04/25 05:56:43;;;;;;;9.75;5.82;;;15.40;51.50;;;;;;5035514;28;20026;-66
2021/04/25 05:59:09;;;;;;;9.98;6.40;;;15.50;51.20;;;;;;5053274;28;20028;-68
2021/04/25 06:01:37;;;;;;;11.02;6.85;;;15.60;51.20;;;;;;5052894;28;20025;-69
2021/04/25 06:04:05;;;;;;;12.93;6.20;;;15.70;50.90;;;;;;5035012;28;20032;-72
2021/04/25 06:06:30;;;;;;;8.93;6.15;;;15.90;50.60;;;;;;5053124;28;20032;-66
2021/04/25 06:08:58;;;;;;;10.98;5.80;;;16.00;50.30;;;;;;5053382;28;20025;-68
2021/04/25 06:11:25;;;;;;;12.57;6.70;;;16.20;50.40;;;;;;5052945;28;20029;-71
2021/04/25 06:13:52;;;;;;;8.00;5.97;;;16.30;50.00;;;;;;5052988;28;20039;-66
2021/04/25 06:16:17;;;;;;;14.07;7.10;;;16.50;49.80;;;;;;5053074;28;20021;-71
2021/04/25 06:18:43;;;;;;;12.15;6.60;;;16.60;49.70;;;;;;5035433;28;20044;-69
2021/04/25 06:21:08;;;;;;;10.32;6.57;;;16.80;49.50;;;;;;5052861;28;20033;-66
2021/04/25 06:23:34;;;;;;;10.05;6.72;;;16.90;49.10;;;;;;5052156;28;20025;-65
2021/04/25 06:26:00;;;;;;;12.13;7.57;;;17.10;49.20;;;;;;5033326;28;20108;-64
2021/04/25 06:28:28;;;;;;;9.23;6.50;;;17.40;49.30;;;;;;5047334;28;20052;-67
2021/04/25 06:30:57;;;;;;;11.68;7.07;;;17.60;48.80;;;;;;5053122;28;20044;-65
2021/04/25 06:33:24;;;;;;;12.90;7.63;;;17.60;48.50;;;;;;5035395;28;20036;-71
2021/04/25 06:35:51;;;;;;;13.80;7.35;;;17.60;47.20;;;;;;5052321;28;20044;-71
2021/04/25 06:38:17;;;;;;;9.95;6.75;;;17.60;48.30;;;;;;5052960;28;20036;-72
2021/04/25 06:40:43;;;;;;;10.63;6.72;;;17.60;48.10;;;;;;5053339;28;20029;-73
2021/04/25 06:43:09;;;;;;;12.18;5.95;;;17.70;48.10;;;;;;5052969;28;20021;-70
2021/04/25 06:45:36;;;;;;;10.43;5.60;;;17.90;48.00;;;;;;5052475;28;20030;-68
2021/04/25 06:48:05;;;;;;;9.35;5.72;;;18.10;47.70;;;;;;5052916;28;20068;-74
2021/04/25 06:50:31;;;;;;;10.18;6.10;;;18.30;47.70;;;;;;5052876;28;20444;-70
2021/04/25 06:53:11;;;;;;;13.88;5.93;;;18.40;47.10;;;;;;5035258;28;20032;-73
2021/04/25 06:55:37;;;;;;;8.90;5.75;;;18.60;47.10;;;;;;5053450;28;20025;-70
2021/04/25 06:58:03;;;;;;;9.95;6.07;;;18.60;46.70;;;;;;5053263;28;20428;-74
2021/04/25 07:00:30;;;;;;;14.20;6.20;;;18.60;46.30;;;;;;5053101;28;20428;-77
2021/04/25 07:02:57;;;;;;;9.40;5.63;;;18.60;45.20;;;;;;5053296;28;20103;-76
2021/04/25 07:05:27;;;;;;;11.00;5.88;;;18.60;45.80;;;;;;5053222;28;20026;-75
2021/04/25 07:07:56;;;;;;;9.27;5.95;;;18.80;45.20;;;;;;5050285;28;20032;-82
2021/04/25 07:10:24;;;;;;;12.05;5.53;;;18.80;46.10;;;;;;5052862;28;20044;-76
2021/04/25 07:12:55;;;;;;;9.20;5.78;;;18.90;44.60;;;;;;5051042;28;20037;-81
2021/04/25 07:15:30;;;;;;;11.23;5.63;;;19.10;44.60;;;;;;5053393;28;20031;-75
2021/04/25 07:17:57;;;;;;;8.82;5.45;;;19.10;44.60;;;;;;5052869;28;20045;-74
2021/04/25 07:20:24;;;;;;;10.05;5.70;;;19.30;45.20;;;;;;5051418;28;20018;-70
2021/04/25 07:22:50;;;;;;;8.82;5.35;;;19.30;44.20;;;;;;5052763;28;20025;-79
2021/04/25 07:25:16;;;;;;;9.02;5.93;;;19.40;44.80;;;;;;5054995;28;20024;-80
2021/04/25 07:27:45;;;;;;;13.20;6.47;;;19.40;44.60;;;;;;5056789;28;20029;-80
2021/04/25 07:30:12;;;;;;;12.13;5.88;;;19.50;44.50;;;;;;5055938;28;20025;-70
2021/04/25 07:32:38;;;;;;;10.00;6.15;;;19.60;44.20;;;;;;5055957;28;20021;-65
2021/04/25 07:35:05;;;;;;;13.60;8.13;;;19.60;44.50;;;;;;5056707;28;20017;-76
2021/04/25 07:37:31;;;;;;;17.92;10.55;;;19.60;44.30;;;;;;5055833;28;20064;-71
2021/04/25 07:39:57;;;;;;;13.23;6.43;;;19.80;44.70;;;;;;5055197;28;20049;-69
2021/04/25 07:42:22;;;;;;;8.65;4.82;;;19.90;44.50;;;;;;5055053;28;20140;-72
2021/04/25 07:44:48;;;;;;;9.18;4.88;;;19.80;43.40;;;;;;5055544;28;20112;-73
2021/04/25 07:47:14;;;;;;;10.25;5.03;;;19.70;43.80;;;;;;5055951;28;20569;-70
2021/04/25 07:49:40;;;;;;;10.90;5.05;;;19.70;44.00;;;;;;5055065;28;20532;-69
2021/04/25 07:52:06;;;;;;;8.90;4.45;;;19.80;44.20;;;;;;5055623;28;20425;-73
2021/04/25 07:54:32;;;;;;;7.20;4.28;;;19.80;44.20;;;;;;5055904;28;20021;-71
2021/04/25 07:56:58;;;;;;;8.88;4.97;;;19.90;44.60;;;;;;5055660;28;20112;-73
2021/04/25 07:59:24;;;;;;;11.15;5.03;;;20.00;44.50;;;;;;5055250;28;20491;-71
2021/04/25 08:01:50;;;;;;;14.85;5.30;;;20.00;44.60;;;;;;5037132;28;20512;-74
2021/04/25 08:04:16;;;;;;;8.68;4.65;;;20.10;44.70;;;;;;5055131;28;20048;-71
2021/04/25 08:06:43;;;;;;;9.95;5.00;;;20.10;44.60;;;;;;5055029;28;20028;-77
2021/04/25 08:09:10;;;;;;;10.63;5.55;;;20.20;44.70;;;;;;5037395;28;20088;-70
2021/04/25 08:11:36;;;;;;;11.25;5.85;;;20.10;44.40;;;;;;5054767;28;20335;-74
2021/04/25 08:14:02;;;;;;;10.00;5.55;;;20.00;43.90;;;;;;5020823;28;20037;-76
2021/04/25 08:16:28;;;;;;;7.85;4.88;;;20.00;44.50;;;;;;5055037;28;20178;-74
2021/04/25 08:18:54;;;;;;;10.20;4.95;;;19.80;45.10;;;;;;5036387;28;20037;-76
2021/04/25 08:21:21;;;;;;;12.48;5.28;;;19.80;45.40;;;;;;5048168;28;20397;-71
2021/04/25 08:23:48;;;;;;;11.30;5.57;;;19.70;45.70;;;;;;5054655;28;20116;-71
2021/04/25 08:26:13;;;;;;;10.35;5.40;;;19.80;45.90;;;;;;5036896;28;20057;-70
2021/04/25 08:28:39;;;;;;;12.07;5.35;;;19.80;45.90;;;;;;5054971;28;20086;-69
2021/04/25 08:31:05;;;;;;;11.05;5.35;;;19.80;46.20;;;;;;5046305;28;20028;-75
2021/04/25 08:33:30;;;;;;;11.35;5.07;;;19.80;46.30;;;;;;5035328;28;20029;-76
2021/04/25 08:35:56;;;;;;;10.07;5.45;;;19.80;46.60;;;;;;5035164;28;20041;-74
2021/04/25 08:38:21;;;;;;;9.88;5.40;;;19.90;46.90;;;;;;5034910;28;20033;-69
2021/04/25 08:40:47;;;;;;;11.25;6.20;;;19.90;47.10;;;;;;5037664;28;20031;-73
2021/04/25 08:43:14;;;;;;;10.32;5.50;;;19.90;47.60;;;;;;5054433;28;20405;-68
2021/04/25 08:45:42;;;;;;;10.27;5.97;;;19.90;47.90;;;;;;5046976;28;20415;-72
2021/04/25 08:48:21;;;;;;;12.07;7.22;;;19.90;48.00;;;;;;5036191;28;20368;-78
2021/04/25 08:50:48;;;;;;;13.90;7.03;;;19.90;47.50;;;;;;5036767;28;20339;-76
2021/04/25 08:53:17;;;;;;;14.55;8.48;;;20.00;48.50;;;;;;5020351;28;20040;-70
2021/04/25 08:55:43;;;;;;;19.85;7.93;;;20.00;49.10;;;;;;5054486;28;20025;-71
2021/04/25 08:58:09;;;;;;;12.43;7.00;;;19.90;49.30;;;;;;5054637;28;20033;-69
2021/04/25 09:00:35;;;;;;;13.30;6.82;;;20.00;49.60;;;;;;5036553;28;20115;-64
2021/04/25 09:03:01;;;;;;;12.45;6.72;;;20.00;49.60;;;;;;5054372;28;20382;-68
2021/04/25 09:05:26;;;;;;;14.23;8.27;;;20.00;49.90;;;;;;5054162;28;20024;-65
2021/04/25 09:08:00;;;;;;;15.32;7.47;;;20.00;50.00;;;;;;5053809;28;20028;-66
2021/04/25 09:10:52;;;;;;;18.55;7.65;;;20.10;49.70;;;;;;5053316;28;20021;-68
2021/04/25 09:13:22;;;;;;;13.55;7.80;;;20.10;50.30;;;;;;5053382;28;20025;-67
2021/04/25 09:15:49;;;;;;;15.98;10.75;;;20.20;50.40;;;;;;5053577;28;20033;-68
2021/04/25 09:18:15;;;;;;;12.98;6.85;;;20.10;50.70;;;;;;5053413;28;20183;-69
2021/04/25 09:20:50;;;;;;;11.00;6.00;;;20.30;50.50;;;;;;5054016;28;20025;-67
2021/04/25 09:23:22;;;;;;;14.88;5.50;;;20.30;50.40;;;;;;5053683;28;20040;-66
2021/04/25 09:26:05;;;;;;;11.98;5.47;;;20.30;50.00;;;;;;5053997;28;20034;-66
2021/04/25 09:28:33;;;;;;;19.98;4.93;;;20.40;48.90;;;;;;5053892;28;20025;-70
2021/04/25 09:31:04;;;;;;;15.90;5.25;;;20.40;49.50;;;;;;5053740;28;20031;-69
2021/04/25 09:33:48;;;;;;;12.50;5.63;;;20.40;49.30;;;;;;5053411;28;20071;-69
2021/04/25 09:36:16;;;;;;;11.82;5.35;;;20.50;49.20;;;;;;5053850;28;20032;-69
2021/04/25 09:38:42;;;;;;;11.55;5.78;;;20.50;49.40;;;;;;5053320;28;20079;-70
2021/04/25 09:41:11;;;;;;;11.48;5.13;;;20.50;49.30;;;;;;5052800;28;20435;-68
2021/04/25 09:43:40;;;;;;;9.52;5.03;;;20.60;49.20;;;;;;5052876;28;20025;-71
2021/04/25 09:46:06;;;;;;;12.85;4.80;;;20.60;48.70;;;;;;5052670;28;20112;-69
2021/04/25 09:48:34;;;;;;;9.75;4.07;;;20.60;48.40;;;;;;5052436;28;20024;-73
2021/04/25 09:51:05;;;;;;;11.73;4.45;;;20.60;48.40;;;;;;5052809;28;20415;-72
2021/04/25 09:53:31;;;;;;;8.77;4.15;;;20.70;48.30;;;;;;5053219;28;20485;-70
2021/04/25 09:55:57;;;;;;;10.52;4.50;;;20.80;47.90;;;;;;5053276;28;20028;-72
2021/04/25 09:58:23;;;;;;;8.50;4.35;;;20.80;48.00;;;;;;5053273;28;20033;-71
2021/04/25 10:00:51;;;;;;;7.32;4.13;;;20.80;48.10;;;;;;5053226;28;20090;-72
2021/04/25 10:03:21;;;;;;;9.68;4.07;;;20.90;48.00;;;;;;5053296;28;20385;-76
2021/04/25 10:06:00;;;;;;;10.00;4.35;;;20.90;48.00;;;;;;5052997;28;20032;-72
2021/04/25 10:08:28;;;;;;;14.07;5.00;;;21.00;48.10;;;;;;5053134;28;20021;-69
2021/04/25 10:10:53;;;;;;;9.25;4.25;;;21.10;48.30;;;;;;5053164;28;20028;-69
2021/04/25 10:13:19;;;;;;;10.65;4.50;;;21.10;48.50;;;;;;5035194;28;20029;-72
2021/04/25 10:15:45;;;;;;;8.27;4.38;;;21.10;48.60;;;;;;5034252;28;20116;-69
2021/04/25 10:18:11;;;;;;;10.40;4.32;;;21.20;49.10;;;;;;5033119;28;20136;-73
2021/04/25 10:20:37;;;;;;;10.63;4.50;;;21.20;49.60;;;;;;5032995;28;20364;-70
2021/04/25 10:23:03;;;;;;;6.88;3.90;;;21.30;50.00;;;;;;5033231;28;20025;-70
2021/04/25 10:25:35;;;;;;;22.98;13.48;;;21.40;49.60;;;;;;5046142;28;20382;-76
2021/04/25 10:28:10;;;;;;;12.90;7.25;;;21.40;49.10;;;;;;5052981;28;20029;-68
2021/04/25 10:30:40;;;;;;;9.85;4.70;;;21.50;48.90;;;;;;5052967;28;20026;-71
2021/04/25 10:33:07;;;;;;;6.85;4.28;;;21.60;49.30;;;;;;5052671;28;20037;-72
2021/04/25 10:35:34;;;;;;;9.20;4.60;;;21.60;49.80;;;;;;5052623;28;20029;-67
2021/04/25 10:38:05;;;;;;;11.52;4.18;;;21.70;50.00;;;;;;5052849;28;20505;-71
2021/04/25 10:40:37;;;;;;;9.02;4.30;;;21.80;50.20;;;;;;5052857;28;20021;-68
2021/04/25 10:43:07;;;;;;;9.38;4.50;;;21.90;49.30;;;;;;5053336;28;20370;-70
2021/04/25 10:45:54;;;;;;;8.20;4.45;;;21.90;50.20;;;;;;5052369;28;20033;-72
2021/04/25 10:48:34;;;;;;;11.93;4.78;;;21.90;50.80;;;;;;5052658;28;20479;-75
2021/04/25 10:51:07;;;;;;;9.60;5.10;;;21.90;50.60;;;;;;5052934;28;20083;-72
2021/04/25 10:53:36;;;;;;;8.70;4.20;;;21.80;51.60;;;;;;5035183;28;20040;-72
2021/04/25 10:56:14;;;;;;;9.35;4.60;;;21.80;51.60;;;;;;5052510;28;20040;-71
2021/04/25 10:58:45;;;;;;;8.25;4.68;;;21.80;51.80;;;;;;5052748;28;20470;-71
2021/04/25 11:01:39;;;;;;;13.82;9.50;;;21.90;51.90;;;;;;5041466;28;20104;-75
2021/04/25 11:04:05;;;;;;;9.25;4.65;;;21.90;51.60;;;;;;5036731;28;20371;-72
2021/04/25 11:06:31;;;;;;;11.93;4.60;;;22.00;52.00;;;;;;5046030;28;20029;-70
2021/04/25 11:08:57;;;;;;;10.20;4.95;;;22.10;51.80;;;;;;5054432;28;20048;-69
2021/04/25 11:11:38;;;;;;;11.40;4.50;;;22.30;52.00;;;;;;5055772;28;20036;-68
2021/04/25 11:14:05;;;;;;;9.00;4.63;;;22.40;51.50;;;;;;5056043;28;20112;-72
2021/04/25 11:16:35;;;;;;;10.25;4.45;;;22.40;51.80;;;;;;5055494;28;20033;-68
2021/04/25 11:19:09;;;;;;;9.77;4.57;;;22.40;51.70;;;;;;5055611;28;20033;-72
2021/04/25 11:21:44;;;;;;;10.55;4.82;;;22.40;50.60;;;;;;5056060;28;20028;-72
2021/04/25 11:24:10;;;;;;;7.60;4.05;;;22.50;51.40;;;;;;5056231;28;20029;-73
2021/04/25 11:29:08;;;;;;;9.38;4.05;;;22.50;51.40;;;;;;5056415;28;20173;-71
2021/04/25 11:31:49;;;;;;;7.78;4.00;;;22.50;51.10;;;;;;5055075;28;20071;-70
2021/04/25 11:34:31;;;;;;;9.90;4.82;;;22.50;50.90;;;;;;5055352;28;20462;-71
2021/04/25 11:37:06;;;;;;;8.40;4.47;;;22.50;51.50;;;;;;5055267;28;20431;-69
2021/04/25 11:39:42;;;;;;;10.80;4.50;;;22.50;50.40;;;;;;5055690;28;20454;-70
2021/04/25 11:42:10;;;;;;;8.88;4.00;;;22.60;51.20;;;;;;5055198;28;20029;-68
2021/04/25 11:44:38;;;;;;;9.93;4.40;;;22.70;50.90;;;;;;5055137;28;20025;-69
2021/04/25 11:47:09;;;;;;;12.55;5.05;;;22.80;51.80;;;;;;5055205;28;20025;-73
2021/04/25 11:49:38;;;;;;;7.85;4.40;;;22.80;51.20;;;;;;5055335;28;20497;-71
2021/04/25 11:52:23;;;;;;;12.05;4.88;;;22.90;50.60;;;;;;5055044;28;20465;-72
2021/04/25 11:54:57;;;;;;;8.30;5.03;;;23.00;50.60;;;;;;5054987;28;20025;-70
2021/04/25 11:57:24;;;;;;;9.23;4.50;;;23.00;50.40;;;;;;5054916;28;20059;-72
2021/04/25 12:00:07;;;;;;;7.85;4.55;;;23.10;49.90;;;;;;5054952;28;20379;-69
2021/04/25 12:02:38;;;;;;;9.77;4.57;;;23.10;48.80;;;;;;5054879;28;20025;-72
2021/04/25 12:05:11;;;;;;;12.30;4.60;;;23.20;48.50;;;;;;5054965;28;20033;-71
2021/04/25 12:07:39;;;;;;;8.88;4.32;;;23.10;48.40;;;;;;5054834;28;20025;-72
2021/04/25 12:10:19;;;;;;;9.50;4.00;;;23.10;49.40;;;;;;5054717;28;20025;-68
2021/04/25 12:13:05;;;;;;;7.95;4.47;;;23.00;47.70;;;;;;5055150;28;20071;-74
2021/04/25 12:15:37;;;;;;;9.75;4.65;;;22.90;47.80;;;;;;5054818;28;20029;-68
2021/04/25 12:18:02;;;;;;;10.20;5.60;;;22.80;48.10;;;;;;5050477;28;20049;-70
2021/04/25 12:20:28;;;;;;;24.20;6.40;;;22.70;47.40;;;;;;5039351;28;20501;-71
2021/04/25 12:22:54;;;;;;;12.50;5.32;;;22.80;47.90;;;;;;5054786;28;20423;-68
2021/04/25 12:25:21;;;;;;;8.88;4.55;;;22.80;48.00;;;;;;5054861;28;20551;-70
2021/04/25 12:27:49;;;;;;;8.85;4.93;;;22.80;47.70;;;;;;5054667;28;20497;-70
2021/04/25 12:30:20;;;;;;;11.18;4.65;;;22.70;47.70;;;;;;5054611;28;20017;-70
2021/04/25 12:32:46;;;;;;;9.65;5.00;;;22.70;47.90;;;;;;5034537;28;20030;-68
2021/04/25 12:35:12;;;;;;;9.38;4.00;;;22.70;47.30;;;;;;5034785;28;20037;-68
2021/04/25 12:37:42;;;;;;;10.77;3.58;;;22.80;46.50;;;;;;5053578;28;20501;-70
2021/04/25 12:40:29;;;;;;;9.48;3.90;;;22.80;45.50;;;;;;5054256;28;20028;-70
2021/04/25 12:43:26;;;;;;;8.80;4.20;;;22.90;45.30;;;;;;5053583;28;20080;-69